sensor_id;sensor_type;location;lat;lon;timestamp;pressure;altitude;pressure_sealevel;temperature;humidity
70198;BME280;57582;-34.876;138.628;2022-09-17T00:01:00;100137;;;14.29;69.66
70198;BME280;57582;-34.876;138.628;2022-09-17T00:04:01;100137;;;14.27;69.27
70198;BME280;57582;-34.876;138.628;2022-09-17T00:07:00;100137;;;14.35;69.21
70198;BME280;57582;-34.876;138.628;2022-09-17T00:10:01;100137;;;14.42;69.36
70198;BME280;57582;-34.876;138.628;2022-09-17T00:13:00;100137;;;14.42;70.62
70198;BME280;57582;-34.876;138.628;2022-09-17T00:16:01;100147;;;14.38;69.86
70198;BME280;57582;-34.876;138.628;2022-09-17T00:19:00;100155;;;14.32;69.93
70198;BME280;57582;-34.876;138.628;2022-09-17T00:22:01;100161;;;14.14;71.24
70198;BME280;57582;-34.876;138.628;2022-09-17T00:25:00;100161;;;14.32;72.21
70198;BME280;57582;-34.876;138.628;2022-09-17T00:28:01;100164;;;14.45;70.18
70198;BME280;57582;-34.876;138.628;2022-09-17T00:31:05;100170;;;14.34;72.18
70198;BME280;57582;-34.876;138.628;2022-09-17T00:34:01;100177;;;14.24;73.46
70198;BME280;57582;-34.876;138.628;2022-09-17T00:37:00;100169;;;14.01;73.13
70198;BME280;57582;-34.876;138.628;2022-09-17T00:40:01;100179;;;13.81;73.65
70198;BME280;57582;-34.876;138.628;2022-09-17T00:43:00;100187;;;13.89;73.64
70198;BME280;57582;-34.876;138.628;2022-09-17T00:46:01;100176;;;14.08;72.38
70198;BME280;57582;-34.876;138.628;2022-09-17T00:49:02;100183;;;14.34;70.14
70198;BME280;57582;-34.876;138.628;2022-09-17T00:52:04;100188;;;14.48;69.42
70198;BME280;57582;-34.876;138.628;2022-09-17T00:55:04;100186;;;14.59;69.18
70198;BME280;57582;-34.876;138.628;2022-09-17T00:58:01;100189;;;14.85;68.74
70198;BME280;57582;-34.876;138.628;2022-09-17T01:01:00;100198;;;15.08;66.94
70198;BME280;57582;-34.876;138.628;2022-09-17T01:04:01;100194;;;15.19;66.44
70198;BME280;57582;-34.876;138.628;2022-09-17T01:13:05;100191;;;15.25;68.90
70198;BME280;57582;-34.876;138.628;2022-09-17T01:22:02;100199;;;14.40;75.59
70198;BME280;57582;-34.876;138.628;2022-09-17T01:31:07;100203;;;14.44;74.97
70198;BME280;57582;-34.876;138.628;2022-09-17T01:49:01;100228;;;15.03;68.04
70198;BME280;57582;-34.876;138.628;2022-09-17T01:52:01;100224;;;15.24;66.38
70198;BME280;57582;-34.876;138.628;2022-09-17T01:55:02;100238;;;15.29;65.97
70198;BME280;57582;-34.876;138.628;2022-09-17T01:58:03;100223;;;15.33;65.44
70198;BME280;57582;-34.876;138.628;2022-09-17T02:01:01;100218;;;15.43;64.08
70198;BME280;57582;-34.876;138.628;2022-09-17T02:04:04;100235;;;15.37;64.41
70198;BME280;57582;-34.876;138.628;2022-09-17T02:07:02;100225;;;15.31;64.34
70198;BME280;57582;-34.876;138.628;2022-09-17T02:13:02;100218;;;15.58;63.57
70198;BME280;57582;-34.876;138.628;2022-09-17T02:16:02;100225;;;15.82;64.35
70198;BME280;57582;-34.876;138.628;2022-09-17T02:19:04;100209;;;15.93;62.76
70198;BME280;57582;-34.876;138.628;2022-09-17T02:22:04;100214;;;16.29;62.79
70198;BME280;57582;-34.876;138.628;2022-09-17T02:25:05;100209;;;16.40;61.26
70198;BME280;57582;-34.876;138.628;2022-09-17T02:28:03;100201;;;16.20;61.73
70198;BME280;57582;-34.876;138.628;2022-09-17T02:31:00;100207;;;15.89;62.63
70198;BME280;57582;-34.876;138.628;2022-09-17T02:34:01;100196;;;15.74;63.43
70198;BME280;57582;-34.876;138.628;2022-09-17T02:37:00;100203;;;15.51;65.30
70198;BME280;57582;-34.876;138.628;2022-09-17T02:40:01;100214;;;15.46;65.35
70198;BME280;57582;-34.876;138.628;2022-09-17T02:58:05;100223;;;15.79;67.83
70198;BME280;57582;-34.876;138.628;2022-09-17T03:01:02;100228;;;15.93;65.74
70198;BME280;57582;-34.876;138.628;2022-09-17T03:04:01;100220;;;15.90;65.27
70198;BME280;57582;-34.876;138.628;2022-09-17T03:07:04;100238;;;15.68;65.50
70198;BME280;57582;-34.876;138.628;2022-09-17T03:10:01;100247;;;15.45;70.23
70198;BME280;57582;-34.876;138.628;2022-09-17T03:13:00;100252;;;15.29;72.78
70198;BME280;57582;-34.876;138.628;2022-09-17T03:16:02;100263;;;14.94;73.39
70198;BME280;57582;-34.876;138.628;2022-09-17T03:19:00;100253;;;14.73;74.45
70198;BME280;57582;-34.876;138.628;2022-09-17T03:22:01;100243;;;14.73;75.37
70198;BME280;57582;-34.876;138.628;2022-09-17T03:25:00;100250;;;14.81;77.08
70198;BME280;57582;-34.876;138.628;2022-09-17T03:28:02;100254;;;14.95;75.94
70198;BME280;57582;-34.876;138.628;2022-09-17T03:31:00;100252;;;15.00;73.83
70198;BME280;57582;-34.876;138.628;2022-09-17T03:34:01;100245;;;15.17;74.49
70198;BME280;57582;-34.876;138.628;2022-09-17T03:37:00;100255;;;15.21;70.17
70198;BME280;57582;-34.876;138.628;2022-09-17T03:40:03;100252;;;15.31;70.19
70198;BME280;57582;-34.876;138.628;2022-09-17T03:43:00;100257;;;15.18;69.91
70198;BME280;57582;-34.876;138.628;2022-09-17T03:46:01;100256;;;15.09;71.60
70198;BME280;57582;-34.876;138.628;2022-09-17T03:49:01;100266;;;15.05;71.67
70198;BME280;57582;-34.876;138.628;2022-09-17T03:52:01;100250;;;15.00;70.32
70198;BME280;57582;-34.876;138.628;2022-09-17T03:55:01;100248;;;14.99;67.95
70198;BME280;57582;-34.876;138.628;2022-09-17T03:58:01;100262;;;14.95;68.98
70198;BME280;57582;-34.876;138.628;2022-09-17T04:01:01;100263;;;15.02;66.75
70198;BME280;57582;-34.876;138.628;2022-09-17T04:04:02;100258;;;14.94;65.47
70198;BME280;57582;-34.876;138.628;2022-09-17T04:07:01;100258;;;15.08;65.53
70198;BME280;57582;-34.876;138.628;2022-09-17T04:10:01;100261;;;15.39;64.65
70198;BME280;57582;-34.876;138.628;2022-09-17T04:13:01;100251;;;15.69;63.14
70198;BME280;57582;-34.876;138.628;2022-09-17T04:16:01;100255;;;15.90;62.04
70198;BME280;57582;-34.876;138.628;2022-09-17T04:19:01;100251;;;15.89;61.96
70198;BME280;57582;-34.876;138.628;2022-09-17T04:22:01;100258;;;15.77;62.83
70198;BME280;57582;-34.876;138.628;2022-09-17T04:25:01;100271;;;15.67;64.26
70198;BME280;57582;-34.876;138.628;2022-09-17T04:28:01;100285;;;15.34;66.87
70198;BME280;57582;-34.876;138.628;2022-09-17T04:31:01;100293;;;14.92;70.94
70198;BME280;57582;-34.876;138.628;2022-09-17T04:34:02;100303;;;14.61;73.66
70198;BME280;57582;-34.876;138.628;2022-09-17T04:37:01;100300;;;14.57;75.40
70198;BME280;57582;-34.876;138.628;2022-09-17T04:40:01;100287;;;14.74;77.42
70198;BME280;57582;-34.876;138.628;2022-09-17T04:43:01;100301;;;14.72;74.69
70198;BME280;57582;-34.876;138.628;2022-09-17T04:46:01;100299;;;14.77;74.31
70198;BME280;57582;-34.876;138.628;2022-09-17T04:49:02;100290;;;14.78;72.91
70198;BME280;57582;-34.876;138.628;2022-09-17T04:52:01;100302;;;14.89;71.51
70198;BME280;57582;-34.876;138.628;2022-09-17T04:55:01;100305;;;15.01;71.56
70198;BME280;57582;-34.876;138.628;2022-09-17T04:58:01;100310;;;15.30;67.36
70198;BME280;57582;-34.876;138.628;2022-09-17T05:01:01;100309;;;15.36;67.37
70198;BME280;57582;-34.876;138.628;2022-09-17T05:04:01;100320;;;15.36;67.00
70198;BME280;57582;-34.876;138.628;2022-09-17T05:07:01;100319;;;15.35;65.18
70198;BME280;57582;-34.876;138.628;2022-09-17T05:10:01;100344;;;15.18;68.12
70198;BME280;57582;-34.876;138.628;2022-09-17T05:13:01;100361;;;14.51;72.00
70198;BME280;57582;-34.876;138.628;2022-09-17T05:16:01;100348;;;14.19;73.25
70198;BME280;57582;-34.876;138.628;2022-09-17T05:19:01;100355;;;14.19;73.91
70198;BME280;57582;-34.876;138.628;2022-09-17T05:22:02;100347;;;14.33;74.15
70198;BME280;57582;-34.876;138.628;2022-09-17T05:25:01;100356;;;14.34;73.98
70198;BME280;57582;-34.876;138.628;2022-09-17T05:28:01;100359;;;14.39;72.65
70198;BME280;57582;-34.876;138.628;2022-09-17T05:31:01;100364;;;14.56;72.40
70198;BME280;57582;-34.876;138.628;2022-09-17T05:34:01;100364;;;14.48;71.23
70198;BME280;57582;-34.876;138.628;2022-09-17T05:37:01;100366;;;14.56;71.03
70198;BME280;57582;-34.876;138.628;2022-09-17T05:40:02;100365;;;14.67;70.33
70198;BME280;57582;-34.876;138.628;2022-09-17T05:43:01;100365;;;14.78;69.79
70198;BME280;57582;-34.876;138.628;2022-09-17T05:46:01;100365;;;14.95;69.67
70198;BME280;57582;-34.876;138.628;2022-09-17T05:49:01;100386;;;14.97;69.59
70198;BME280;57582;-34.876;138.628;2022-09-17T05:52:01;100390;;;14.58;72.41
70198;BME280;57582;-34.876;138.628;2022-09-17T05:55:01;100413;;;14.31;74.36
70198;BME280;57582;-34.876;138.628;2022-09-17T05:58:10;100416;;;14.14;73.71
70198;BME280;57582;-34.876;138.628;2022-09-17T06:01:01;100410;;;14.12;74.64
70198;BME280;57582;-34.876;138.628;2022-09-17T06:04:01;100419;;;14.18;74.78
70198;BME280;57582;-34.876;138.628;2022-09-17T06:07:05;100420;;;14.25;73.55
70198;BME280;57582;-34.876;138.628;2022-09-17T06:10:02;100415;;;14.17;71.81
70198;BME280;57582;-34.876;138.628;2022-09-17T06:13:01;100420;;;14.20;72.07
70198;BME280;57582;-34.876;138.628;2022-09-17T06:16:01;100410;;;14.32;71.88
70198;BME280;57582;-34.876;138.628;2022-09-17T06:19:01;100419;;;14.33;69.86
70198;BME280;57582;-34.876;138.628;2022-09-17T06:22:01;100420;;;14.36;70.96
70198;BME280;57582;-34.876;138.628;2022-09-17T06:25:01;100417;;;14.54;70.75
70198;BME280;57582;-34.876;138.628;2022-09-17T06:28:01;100428;;;14.64;70.52
70198;BME280;57582;-34.876;138.628;2022-09-17T06:31:01;100425;;;14.57;69.91
70198;BME280;57582;-34.876;138.628;2022-09-17T06:34:01;100431;;;14.67;70.33
70198;BME280;57582;-34.876;138.628;2022-09-17T06:37:01;100432;;;14.76;70.33
70198;BME280;57582;-34.876;138.628;2022-09-17T06:40:01;100436;;;14.89;70.06
70198;BME280;57582;-34.876;138.628;2022-09-17T06:43:01;100438;;;14.82;69.75
70198;BME280;57582;-34.876;138.628;2022-09-17T06:46:02;100442;;;14.81;70.71
70198;BME280;57582;-34.876;138.628;2022-09-17T06:49:01;100446;;;14.90;70.06
70198;BME280;57582;-34.876;138.628;2022-09-17T06:52:01;100455;;;14.89;70.12
70198;BME280;57582;-34.876;138.628;2022-09-17T06:55:02;100456;;;14.84;69.57
70198;BME280;57582;-34.876;138.628;2022-09-17T06:58:01;100471;;;14.70;68.37
70198;BME280;57582;-34.876;138.628;2022-09-17T07:01:01;100475;;;14.53;67.66
70198;BME280;57582;-34.876;138.628;2022-09-17T07:04:02;100470;;;14.52;67.27
70198;BME280;57582;-34.876;138.628;2022-09-17T07:07:01;100483;;;14.61;67.65
70198;BME280;57582;-34.876;138.628;2022-09-17T07:10:01;100487;;;14.51;68.79
70198;BME280;57582;-34.876;138.628;2022-09-17T07:13:01;100488;;;14.41;69.35
70198;BME280;57582;-34.876;138.628;2022-09-17T07:16:02;100502;;;14.37;69.86
70198;BME280;57582;-34.876;138.628;2022-09-17T07:19:02;100496;;;14.27;72.24
70198;BME280;57582;-34.876;138.628;2022-09-17T07:22:02;100507;;;14.04;72.63
70198;BME280;57582;-34.876;138.628;2022-09-17T07:25:03;100510;;;13.84;73.76
70198;BME280;57582;-34.876;138.628;2022-09-17T07:28:02;100513;;;13.85;74.03
70198;BME280;57582;-34.876;138.628;2022-09-17T07:31:03;100513;;;13.85;74.69
70198;BME280;57582;-34.876;138.628;2022-09-17T07:34:02;100511;;;13.93;73.80
70198;BME280;57582;-34.876;138.628;2022-09-17T07:37:01;100516;;;14.01;70.78
70198;BME280;57582;-34.876;138.628;2022-09-17T07:40:02;100519;;;13.98;69.04
70198;BME280;57582;-34.876;138.628;2022-09-17T07:43:01;100529;;;14.04;68.30
70198;BME280;57582;-34.876;138.628;2022-09-17T07:46:02;100533;;;14.13;68.19
70198;BME280;57582;-34.876;138.628;2022-09-17T07:49:01;100533;;;14.13;68.38
70198;BME280;57582;-34.876;138.628;2022-09-17T07:52:02;100529;;;14.21;68.40
70198;BME280;57582;-34.876;138.628;2022-09-17T07:55:01;100535;;;14.21;68.66
70198;BME280;57582;-34.876;138.628;2022-09-17T07:58:01;100534;;;14.24;68.93
70198;BME280;57582;-34.876;138.628;2022-09-17T08:01:01;100538;;;14.28;69.23
70198;BME280;57582;-34.876;138.628;2022-09-17T08:04:01;100550;;;14.27;69.09
70198;BME280;57582;-34.876;138.628;2022-09-17T08:07:01;100556;;;14.25;69.51
70198;BME280;57582;-34.876;138.628;2022-09-17T08:10:02;100563;;;14.35;69.26
70198;BME280;57582;-34.876;138.628;2022-09-17T08:13:01;100571;;;14.23;69.47
70198;BME280;57582;-34.876;138.628;2022-09-17T08:16:03;100566;;;14.10;69.81
70198;BME280;57582;-34.876;138.628;2022-09-17T08:19:01;100578;;;14.24;69.95
70198;BME280;57582;-34.876;138.628;2022-09-17T08:22:01;100587;;;14.30;69.71
70198;BME280;57582;-34.876;138.628;2022-09-17T08:25:01;100586;;;14.35;69.90
70198;BME280;57582;-34.876;138.628;2022-09-17T08:28:01;100595;;;14.41;69.96
70198;BME280;57582;-34.876;138.628;2022-09-17T08:31:03;100602;;;14.35;70.21
70198;BME280;57582;-34.876;138.628;2022-09-17T08:34:05;100613;;;14.49;70.14
70198;BME280;57582;-34.876;138.628;2022-09-17T08:37:01;100604;;;14.53;70.27
70198;BME280;57582;-34.876;138.628;2022-09-17T08:40:02;100620;;;14.59;69.93
70198;BME280;57582;-34.876;138.628;2022-09-17T08:43:01;100628;;;14.59;69.99
70198;BME280;57582;-34.876;138.628;2022-09-17T08:46:01;100637;;;14.56;70.18
70198;BME280;57582;-34.876;138.628;2022-09-17T08:55:04;100647;;;14.27;69.83
70198;BME280;57582;-34.876;138.628;2022-09-17T09:07:03;100663;;;14.38;69.61
70198;BME280;57582;-34.876;138.628;2022-09-17T09:10:04;100672;;;14.48;69.48
70198;BME280;57582;-34.876;138.628;2022-09-17T09:13:01;100677;;;14.56;69.23
70198;BME280;57582;-34.876;138.628;2022-09-17T09:16:04;100683;;;14.38;69.79
70198;BME280;57582;-34.876;138.628;2022-09-17T09:19:16;100690;;;14.44;69.81
70198;BME280;57582;-34.876;138.628;2022-09-17T09:22:04;100692;;;14.40;70.01
70198;BME280;57582;-34.876;138.628;2022-09-17T09:28:29;100709;;;14.34;70.13
70198;BME280;57582;-34.876;138.628;2022-09-17T09:34:01;100726;;;14.07;71.36
70198;BME280;57582;-34.876;138.628;2022-09-17T09:37:09;100718;;;14.03;72.22
70198;BME280;57582;-34.876;138.628;2022-09-17T09:40:11;100727;;;13.95;73.01
70198;BME280;57582;-34.876;138.628;2022-09-17T09:43:03;100729;;;13.98;72.88
70198;BME280;57582;-34.876;138.628;2022-09-17T09:55:20;100742;;;14.54;71.04
70198;BME280;57582;-34.876;138.628;2022-09-17T09:58:10;100752;;;14.73;70.73
70198;BME280;57582;-34.876;138.628;2022-09-17T10:01:02;100759;;;14.89;67.17
70198;BME280;57582;-34.876;138.628;2022-09-17T10:04:05;100756;;;14.87;66.01
70198;BME280;57582;-34.876;138.628;2022-09-17T10:07:03;100766;;;14.78;64.84
70198;BME280;57582;-34.876;138.628;2022-09-17T10:10:06;100781;;;14.50;66.51
70198;BME280;57582;-34.876;138.628;2022-09-17T10:13:05;100767;;;14.29;68.70
70198;BME280;57582;-34.876;138.628;2022-09-17T10:25:02;100778;;;14.22;70.23
70198;BME280;57582;-34.876;138.628;2022-09-17T10:28:02;100780;;;14.29;70.24
70198;BME280;57582;-34.876;138.628;2022-09-17T10:31:03;100792;;;14.36;69.93
70198;BME280;57582;-34.876;138.628;2022-09-17T10:34:02;100795;;;14.42;69.56
70198;BME280;57582;-34.876;138.628;2022-09-17T10:37:01;100791;;;14.45;69.48
70198;BME280;57582;-34.876;138.628;2022-09-17T10:40:10;100797;;;14.37;69.38
70198;BME280;57582;-34.876;138.628;2022-09-17T10:43:17;100810;;;14.32;69.75
70198;BME280;57582;-34.876;138.628;2022-09-17T10:46:02;100801;;;14.38;69.33
70198;BME280;57582;-34.876;138.628;2022-09-17T10:52:10;100800;;;14.42;69.36
70198;BME280;57582;-34.876;138.628;2022-09-17T11:07:04;100816;;;14.97;67.71
70198;BME280;57582;-34.876;138.628;2022-09-17T11:10:06;100826;;;14.92;67.52
70198;BME280;57582;-34.876;138.628;2022-09-17T11:13:20;100821;;;14.89;67.61
70198;BME280;57582;-34.876;138.628;2022-09-17T11:19:36;100831;;;14.58;67.41
70198;BME280;57582;-34.876;138.628;2022-09-17T11:22:05;100829;;;14.41;67.24
70198;BME280;57582;-34.876;138.628;2022-09-17T11:40:04;100835;;;13.77;67.36
70198;BME280;57582;-34.876;138.628;2022-09-17T11:43:03;100832;;;13.73;68.06
70198;BME280;57582;-34.876;138.628;2022-09-17T11:49:03;100825;;;13.91;68.71
70198;BME280;57582;-34.876;138.628;2022-09-17T11:52:10;100827;;;13.92;69.18
70198;BME280;57582;-34.876;138.628;2022-09-17T11:55:19;100831;;;13.75;70.22
70198;BME280;57582;-34.876;138.628;2022-09-17T11:58:07;100837;;;13.73;70.84
70198;BME280;57582;-34.876;138.628;2022-09-17T12:01:03;100836;;;13.81;70.73
70198;BME280;57582;-34.876;138.628;2022-09-17T12:04:23;100832;;;13.88;70.84
70198;BME280;57582;-34.876;138.628;2022-09-17T12:16:09;100825;;;14.07;71.79
70198;BME280;57582;-34.876;138.628;2022-09-17T12:22:20;100832;;;13.92;74.09
70198;BME280;57582;-34.876;138.628;2022-09-17T12:25:02;100829;;;13.75;74.97
70198;BME280;57582;-34.876;138.628;2022-09-17T12:28:07;100831;;;13.57;75.77
70198;BME280;57582;-34.876;138.628;2022-09-17T12:31:04;100830;;;13.74;75.44
70198;BME280;57582;-34.876;138.628;2022-09-17T12:34:17;100831;;;13.91;74.54
70198;BME280;57582;-34.876;138.628;2022-09-17T12:37:04;100832;;;13.98;73.80
70198;BME280;57582;-34.876;138.628;2022-09-17T12:43:05;100819;;;14.00;73.14
70198;BME280;57582;-34.876;138.628;2022-09-17T12:52:06;100810;;;13.94;72.03
70198;BME280;57582;-34.876;138.628;2022-09-17T12:55:06;100815;;;13.94;71.69
70198;BME280;57582;-34.876;138.628;2022-09-17T13:01:05;100808;;;13.80;72.49
70198;BME280;57582;-34.876;138.628;2022-09-17T13:07:06;100807;;;13.80;73.16
70198;BME280;57582;-34.876;138.628;2022-09-17T13:16:12;100797;;;13.77;73.98
70198;BME280;57582;-34.876;138.628;2022-09-17T13:22:04;100798;;;13.77;73.91
70198;BME280;57582;-34.876;138.628;2022-09-17T13:25:09;100796;;;13.88;73.82
70198;BME280;57582;-34.876;138.628;2022-09-17T13:28:04;100798;;;13.89;73.79
70198;BME280;57582;-34.876;138.628;2022-09-17T13:31:01;100804;;;13.88;74.00
70198;BME280;57582;-34.876;138.628;2022-09-17T13:34:03;100810;;;13.68;75.26
70198;BME280;57582;-34.876;138.628;2022-09-17T13:37:02;100804;;;13.68;75.29
70198;BME280;57582;-34.876;138.628;2022-09-17T13:40:03;100803;;;13.68;75.52
70198;BME280;57582;-34.876;138.628;2022-09-17T13:46:04;100793;;;13.73;76.22
70198;BME280;57582;-34.876;138.628;2022-09-17T13:49:04;100794;;;13.91;77.43
70198;BME280;57582;-34.876;138.628;2022-09-17T13:52:02;100785;;;14.16;76.45
70198;BME280;57582;-34.876;138.628;2022-09-17T13:55:01;100786;;;14.32;73.59
70198;BME280;57582;-34.876;138.628;2022-09-17T13:58:03;100780;;;14.48;72.82
70198;BME280;57582;-34.876;138.628;2022-09-17T14:04:03;100784;;;14.80;71.42
70198;BME280;57582;-34.876;138.628;2022-09-17T14:07:26;100779;;;14.90;70.25
70198;BME280;57582;-34.876;138.628;2022-09-17T14:10:26;100779;;;15.03;69.84
70198;BME280;57582;-34.876;138.628;2022-09-17T14:13:23;100769;;;15.16;68.34
70198;BME280;57582;-34.876;138.628;2022-09-17T14:16:21;100765;;;15.25;68.06
70198;BME280;57582;-34.876;138.628;2022-09-17T14:19:12;100757;;;15.42;67.68
70198;BME280;57582;-34.876;138.628;2022-09-17T14:25:02;100763;;;15.48;66.24
70198;BME280;57582;-34.876;138.628;2022-09-17T14:28:28;100768;;;15.55;66.17
70198;BME280;57582;-34.876;138.628;2022-09-17T14:31:02;100768;;;15.68;65.38
70198;BME280;57582;-34.876;138.628;2022-09-17T14:34:07;100777;;;15.68;65.42
70198;BME280;57582;-34.876;138.628;2022-09-17T14:37:02;100774;;;15.65;64.92
70198;BME280;57582;-34.876;138.628;2022-09-17T14:40:06;100776;;;15.63;64.34
70198;BME280;57582;-34.876;138.628;2022-09-17T14:43:02;100777;;;15.47;64.45
70198;BME280;57582;-34.876;138.628;2022-09-17T14:46:04;100784;;;15.12;65.61
70198;BME280;57582;-34.876;138.628;2022-09-17T14:52:16;100794;;;14.99;65.31
70198;BME280;57582;-34.876;138.628;2022-09-17T14:58:02;100804;;;14.98;65.64
70198;BME280;57582;-34.876;138.628;2022-09-17T15:01:02;100799;;;15.00;65.53
70198;BME280;57582;-34.876;138.628;2022-09-17T15:07:11;100793;;;14.69;66.42
70198;BME280;57582;-34.876;138.628;2022-09-17T15:10:06;100795;;;14.52;66.83
70198;BME280;57582;-34.876;138.628;2022-09-17T15:13:02;100802;;;14.53;67.48
70198;BME280;57582;-34.876;138.628;2022-09-17T15:16:04;100803;;;14.57;67.63
70198;BME280;57582;-34.876;138.628;2022-09-17T15:19:02;100795;;;14.51;68.18
70198;BME280;57582;-34.876;138.628;2022-09-17T15:22:08;100799;;;14.53;68.68
70198;BME280;57582;-34.876;138.628;2022-09-17T15:25:12;100795;;;14.59;68.85
70198;BME280;57582;-34.876;138.628;2022-09-17T15:28:08;100793;;;14.57;68.86
70198;BME280;57582;-34.876;138.628;2022-09-17T15:31:02;100795;;;14.47;69.05
70198;BME280;57582;-34.876;138.628;2022-09-17T15:34:02;100787;;;14.31;69.13
70198;BME280;57582;-34.876;138.628;2022-09-17T15:37:04;100795;;;14.25;68.80
70198;BME280;57582;-34.876;138.628;2022-09-17T15:40:10;100794;;;14.15;68.85
70198;BME280;57582;-34.876;138.628;2022-09-17T15:43:05;100792;;;14.26;68.28
70198;BME280;57582;-34.876;138.628;2022-09-17T15:49:02;100778;;;14.34;68.34
70198;BME280;57582;-34.876;138.628;2022-09-17T15:55:02;100759;;;14.49;67.83
70198;BME280;57582;-34.876;138.628;2022-09-17T15:58:03;100756;;;14.40;67.87
70198;BME280;57582;-34.876;138.628;2022-09-17T16:10:02;100738;;;14.63;65.53
70198;BME280;57582;-34.876;138.628;2022-09-17T16:13:02;100734;;;14.70;64.98
70198;BME280;57582;-34.876;138.628;2022-09-17T16:16:02;100730;;;14.70;65.07
70198;BME280;57582;-34.876;138.628;2022-09-17T16:19:03;100732;;;14.79;65.32
70198;BME280;57582;-34.876;138.628;2022-09-17T16:22:03;100734;;;14.86;65.70
70198;BME280;57582;-34.876;138.628;2022-09-17T16:25:02;100741;;;14.80;66.53
70198;BME280;57582;-34.876;138.628;2022-09-17T16:28:03;100733;;;14.41;68.27
70198;BME280;57582;-34.876;138.628;2022-09-17T16:31:03;100723;;;14.20;68.62
70198;BME280;57582;-34.876;138.628;2022-09-17T16:34:05;100732;;;14.12;69.06
70198;BME280;57582;-34.876;138.628;2022-09-17T16:37:02;100727;;;14.03;69.62
70198;BME280;57582;-34.876;138.628;2022-09-17T16:40:02;100726;;;13.86;70.00
70198;BME280;57582;-34.876;138.628;2022-09-17T16:43:02;100718;;;13.93;69.47
70198;BME280;57582;-34.876;138.628;2022-09-17T16:46:04;100715;;;13.70;70.36
70198;BME280;57582;-34.876;138.628;2022-09-17T16:49:02;100712;;;13.59;70.90
70198;BME280;57582;-34.876;138.628;2022-09-17T16:52:02;100716;;;13.52;70.45
70198;BME280;57582;-34.876;138.628;2022-09-17T16:55:02;100709;;;13.48;70.23
70198;BME280;57582;-34.876;138.628;2022-09-17T16:58:02;100714;;;13.43;70.11
70198;BME280;57582;-34.876;138.628;2022-09-17T17:01:06;100706;;;13.56;69.77
70198;BME280;57582;-34.876;138.628;2022-09-17T17:04:02;100707;;;13.55;69.72
70198;BME280;57582;-34.876;138.628;2022-09-17T17:07:02;100710;;;13.50;70.11
70198;BME280;57582;-34.876;138.628;2022-09-17T17:10:03;100709;;;13.53;70.36
70198;BME280;57582;-34.876;138.628;2022-09-17T17:13:02;100707;;;13.52;70.35
70198;BME280;57582;-34.876;138.628;2022-09-17T17:16:05;100707;;;13.53;70.57
70198;BME280;57582;-34.876;138.628;2022-09-17T17:19:02;100714;;;13.61;70.42
70198;BME280;57582;-34.876;138.628;2022-09-17T17:22:02;100711;;;13.74;70.20
70198;BME280;57582;-34.876;138.628;2022-09-17T17:25:03;100712;;;13.78;70.19
70198;BME280;57582;-34.876;138.628;2022-09-17T17:28:03;100711;;;13.83;70.07
70198;BME280;57582;-34.876;138.628;2022-09-17T17:31:02;100704;;;13.82;70.42
70198;BME280;57582;-34.876;138.628;2022-09-17T17:34:02;100706;;;13.72;71.49
70198;BME280;57582;-34.876;138.628;2022-09-17T17:37:02;100702;;;13.62;72.00
70198;BME280;57582;-34.876;138.628;2022-09-17T17:40:04;100707;;;13.50;72.34
70198;BME280;57582;-34.876;138.628;2022-09-17T17:43:02;100702;;;13.28;72.54
70198;BME280;57582;-34.876;138.628;2022-09-17T17:46:04;100706;;;13.32;71.85
70198;BME280;57582;-34.876;138.628;2022-09-17T17:49:02;100703;;;13.37;71.26
70198;BME280;57582;-34.876;138.628;2022-09-17T17:52:02;100706;;;13.45;70.80
70198;BME280;57582;-34.876;138.628;2022-09-17T17:55:02;100696;;;13.62;70.44
70198;BME280;57582;-34.876;138.628;2022-09-17T17:58:03;100698;;;13.74;69.93
70198;BME280;57582;-34.876;138.628;2022-09-17T18:01:18;100689;;;13.80;68.82
70198;BME280;57582;-34.876;138.628;2022-09-17T18:04:03;100692;;;13.85;68.85
70198;BME280;57582;-34.876;138.628;2022-09-17T18:07:02;100691;;;13.84;68.41
70198;BME280;57582;-34.876;138.628;2022-09-17T18:10:02;100686;;;13.91;68.24
70198;BME280;57582;-34.876;138.628;2022-09-17T18:13:02;100690;;;13.95;67.79
70198;BME280;57582;-34.876;138.628;2022-09-17T18:16:03;100696;;;13.94;68.11
70198;BME280;57582;-34.876;138.628;2022-09-17T18:19:02;100692;;;13.98;68.02
70198;BME280;57582;-34.876;138.628;2022-09-17T18:22:02;100679;;;14.05;67.89
70198;BME280;57582;-34.876;138.628;2022-09-17T18:25:02;100686;;;14.06;67.93
70198;BME280;57582;-34.876;138.628;2022-09-17T18:28:02;100686;;;13.98;68.51
70198;BME280;57582;-34.876;138.628;2022-09-17T18:34:05;100680;;;14.01;68.58
70198;BME280;57582;-34.876;138.628;2022-09-17T18:37:02;100685;;;13.94;68.82
70198;BME280;57582;-34.876;138.628;2022-09-17T18:40:02;100677;;;13.89;68.83
70198;BME280;57582;-34.876;138.628;2022-09-17T18:43:02;100684;;;13.94;68.67
70198;BME280;57582;-34.876;138.628;2022-09-17T18:46:03;100692;;;14.01;68.27
70198;BME280;57582;-34.876;138.628;2022-09-17T18:49:02;100696;;;13.91;68.27
70198;BME280;57582;-34.876;138.628;2022-09-17T18:52:02;100692;;;13.87;68.89
70198;BME280;57582;-34.876;138.628;2022-09-17T18:55:02;100704;;;13.79;69.93
70198;BME280;57582;-34.876;138.628;2022-09-17T18:58:03;100713;;;13.69;71.22